Aviation Digital Data Service (ADDS)

Output produced by METARs form (0605 UTC 21 January 2019)
found at http://www.aviationweather.gov/metar/data/
 
METAR text: VNKT 210550Z VRB02KT 3500 HZ FEW015 16/07 Q1023 BECMG FM0650 5000 HZ
Conditions at: VNKT (KATHMANDU INTL A, NP) observed 0550 UTC 21 January 2019
Temperature: 16.0°C (61°F)
Dewpoint: 7.0°C (45°F) [RH = 55%]
Pressure (altimeter): 30.21 inches Hg (1023.0 mb)
Winds: variable direction winds at 2 MPH (2 knots; 1.0 m/s)
Visibility: 2.17 miles (3.49 km)
Ceiling: at least 12,000 feet AGL
Clouds: few clouds at 1500 feet AGL
Weather: HZ  (haze)

METAR text: VNKT 210520Z VRB02KT 3000 HZ FEW015 15/07 Q1023 BECMG FM0550 4000 HZ
Conditions at: VNKT (KATHMANDU INTL A, NP) observed 0520 UTC 21 January 2019
Temperature: 15.0°C (59°F)
Dewpoint: 7.0°C (45°F) [RH = 59%]
Pressure (altimeter): 30.21 inches Hg (1023.0 mb)
Winds: variable direction winds at 2 MPH (2 knots; 1.0 m/s)
Visibility: 1.86 miles (2.99 km)
Ceiling: at least 12,000 feet AGL
Clouds: few clouds at 1500 feet AGL
Weather: HZ  (haze)

METAR text: VNKT 210450Z VRB02KT 2500 HZ FEW015 13/07 Q1023 BECMG FM0520 3000 HZ
Conditions at: VNKT (KATHMANDU INTL A, NP) observed 0450 UTC 21 January 2019
Temperature: 13.0°C (55°F)
Dewpoint: 7.0°C (45°F) [RH = 67%]
Pressure (altimeter): 30.21 inches Hg (1023.0 mb)
Winds: variable direction winds at 2 MPH (2 knots; 1.0 m/s)
Visibility: 1.55 miles (2.49 km)
Ceiling: at least 12,000 feet AGL
Clouds: few clouds at 1500 feet AGL
Weather: HZ  (haze)

METAR text: VNKT 210420Z VRB02KT 2000 HZ FEW015 12/07 Q1023 BECMG FM0520 3000 HZ
Conditions at: VNKT (KATHMANDU INTL A, NP) observed 0420 UTC 21 January 2019
Temperature: 12.0°C (54°F)
Dewpoint: 7.0°C (45°F) [RH = 71%]
Pressure (altimeter): 30.21 inches Hg (1023.0 mb)
Winds: variable direction winds at 2 MPH (2 knots; 1.0 m/s)
Visibility: 1.24 miles (2.00 km)
Ceiling: at least 12,000 feet AGL
Clouds: few clouds at 1500 feet AGL
Weather: HZ  (haze)

METAR text: VNKT 210350Z VRB02KT 1500 BR FEW010 11/07 Q1023 NOSIG
Conditions at: VNKT (KATHMANDU INTL A, NP) observed 0350 UTC 21 January 2019
Temperature: 11.0°C (52°F)
Dewpoint: 7.0°C (45°F) [RH = 76%]
Pressure (altimeter): 30.21 inches Hg (1023.0 mb)
Winds: variable direction winds at 2 MPH (2 knots; 1.0 m/s)
Visibility: 0.93 miles (1.50 km)
Ceiling: at least 12,000 feet AGL
Clouds: few clouds at 1000 feet AGL
Weather: BR  (mist)

METAR text: VNKT 210320Z 15003KT 1000 BR FEW010 09/07 Q1023 NOSIG
Conditions at: VNKT (KATHMANDU INTL A, NP) observed 0320 UTC 21 January 2019
Temperature: 9.0°C (48°F)
Dewpoint: 7.0°C (45°F) [RH = 87%]
Pressure (altimeter): 30.21 inches Hg (1023.0 mb)
Winds: from the SSE (150 degrees) at 3 MPH (3 knots; 1.5 m/s)
Visibility: 0.62 miles (1.00 km)
Ceiling: at least 12,000 feet AGL
Clouds: few clouds at 1000 feet AGL
Weather: BR  (mist)

METAR text: VNKT 210250Z VRB02KT 1500 BR FEW010 07/06 Q1022 NOSIG
Conditions at: VNKT (KATHMANDU INTL A, NP) observed 0250 UTC 21 January 2019
Temperature: 7.0°C (45°F)
Dewpoint: 6.0°C (43°F) [RH = 93%]
Pressure (altimeter): 30.18 inches Hg (1022.0 mb)
Winds: variable direction winds at 2 MPH (2 knots; 1.0 m/s)
Visibility: 0.93 miles (1.50 km)
Ceiling: at least 12,000 feet AGL
Clouds: few clouds at 1000 feet AGL
Weather: BR  (mist)

METAR text: VNKT 210220Z VRB02KT 1500 BR FEW010 SCT250 06/05 Q1022 NOSIG
Conditions at: VNKT (KATHMANDU INTL A, NP) observed 0220 UTC 21 January 2019
Temperature: 6.0°C (43°F)
Dewpoint: 5.0°C (41°F) [RH = 93%]
Pressure (altimeter): 30.18 inches Hg (1022.0 mb)
Winds: variable direction winds at 2 MPH (2 knots; 1.0 m/s)
Visibility: 0.93 miles (1.50 km)
Ceiling: at least 12,000 feet AGL
Clouds: few clouds at 1000 feet AGL
scattered clouds at 25000 feet AGL
Weather: BR  (mist)

METAR text: VNKT 210150Z VRB02KT 1500 BR FEW010 SCT250 05/04 Q1021 NOSIG
Conditions at: VNKT (KATHMANDU INTL A, NP) observed 0150 UTC 21 January 2019
Temperature: 5.0°C (41°F)
Dewpoint: 4.0°C (39°F) [RH = 93%]
Pressure (altimeter): 30.15 inches Hg (1021.0 mb)
Winds: variable direction winds at 2 MPH (2 knots; 1.0 m/s)
Visibility: 0.93 miles (1.50 km)
Ceiling: at least 12,000 feet AGL
Clouds: few clouds at 1000 feet AGL
scattered clouds at 25000 feet AGL
Weather: BR  (mist)

METAR text: VNKT 210120Z VRB02KT 2000 BR FEW010 SCT250 05/04 Q1021 NOSIG
Conditions at: VNKT (KATHMANDU INTL A, NP) observed 0120 UTC 21 January 2019
Temperature: 5.0°C (41°F)
Dewpoint: 4.0°C (39°F) [RH = 93%]
Pressure (altimeter): 30.15 inches Hg (1021.0 mb)
Winds: variable direction winds at 2 MPH (2 knots; 1.0 m/s)
Visibility: 1.24 miles (2.00 km)
Ceiling: at least 12,000 feet AGL
Clouds: few clouds at 1000 feet AGL
scattered clouds at 25000 feet AGL
Weather: BR  (mist)

METAR text: VNKT 210050Z VRB02KT 2000 BR FEW010 05/04 Q1021 NOSIG
Conditions at: VNKT (KATHMANDU INTL A, NP) observed 0050 UTC 21 January 2019
Temperature: 5.0°C (41°F)
Dewpoint: 4.0°C (39°F) [RH = 93%]
Pressure (altimeter): 30.15 inches Hg (1021.0 mb)
Winds: variable direction winds at 2 MPH (2 knots; 1.0 m/s)
Visibility: 1.24 miles (2.00 km)
Ceiling: at least 12,000 feet AGL
Clouds: few clouds at 1000 feet AGL
Weather: BR  (mist)

METAR text: VNKT 210020Z 10003KT 2500 BR FEW015 BKN250 05/04 Q1021 NOSIG
Conditions at: VNKT (KATHMANDU INTL A, NP) observed 0020 UTC 21 January 2019
Temperature: 5.0°C (41°F)
Dewpoint: 4.0°C (39°F) [RH = 93%]
Pressure (altimeter): 30.15 inches Hg (1021.0 mb)
Winds: from the E (100 degrees) at 3 MPH (3 knots; 1.5 m/s)
Visibility: 1.55 miles (2.49 km)
Ceiling: 25000 feet AGL
Clouds: few clouds at 1500 feet AGL
broken clouds at 25000 feet AGL
Weather: BR  (mist)

METAR text: VNKT 202350Z 00000KT 3000 BR FEW015 06/05 Q1020 NOSIG
Conditions at: VNKT (KATHMANDU INTL A, NP) observed 2350 UTC 20 January 2019
Temperature: 6.0°C (43°F)
Dewpoint: 5.0°C (41°F) [RH = 93%]
Pressure (altimeter): 30.12 inches Hg (1020.0 mb)
Winds: calm
Visibility: 1.86 miles (2.99 km)
Ceiling: at least 12,000 feet AGL
Clouds: few clouds at 1500 feet AGL
Weather: BR  (mist)

METAR text: VNKT 202250Z VRB02KT 3000 BR FEW015 05/05 Q1020 NOSIG
Conditions at: VNKT (KATHMANDU INTL A, NP) observed 2250 UTC 20 January 2019
Temperature: 5.0°C (41°F)
Dewpoint: 5.0°C (41°F) [RH = 100%]
Pressure (altimeter): 30.12 inches Hg (1020.0 mb)
Winds: variable direction winds at 2 MPH (2 knots; 1.0 m/s)
Visibility: 1.86 miles (2.99 km)
Ceiling: at least 12,000 feet AGL
Clouds: few clouds at 1500 feet AGL
Weather: BR  (mist)

METAR text: VNKT 202150Z VRB02KT 3500 BR FEW015 06/05 Q1020 NOSIG
Conditions at: VNKT (KATHMANDU INTL A, NP) observed 2150 UTC 20 January 2019
Temperature: 6.0°C (43°F)
Dewpoint: 5.0°C (41°F) [RH = 93%]
Pressure (altimeter): 30.12 inches Hg (1020.0 mb)
Winds: variable direction winds at 2 MPH (2 knots; 1.0 m/s)
Visibility: 2.17 miles (3.49 km)
Ceiling: at least 12,000 feet AGL
Clouds: few clouds at 1500 feet AGL
Weather: BR  (mist)

METAR text: VNKT 202120Z 00000KT 4000 BR FEW015 06/05 Q1020 NOSIG
Conditions at: VNKT (KATHMANDU INTL A, NP) observed 2120 UTC 20 January 2019
Temperature: 6.0°C (43°F)
Dewpoint: 5.0°C (41°F) [RH = 93%]
Pressure (altimeter): 30.12 inches Hg (1020.0 mb)
Winds: calm
Visibility: 2.49 miles (4.01 km)
Ceiling: at least 12,000 feet AGL
Clouds: few clouds at 1500 feet AGL
Weather: BR  (mist)

METAR text: VNKT 202050Z 08003KT 4000 BR FEW015 06/05 Q1020 NOSIG
Conditions at: VNKT (KATHMANDU INTL A, NP) observed 2050 UTC 20 January 2019
Temperature: 6.0°C (43°F)
Dewpoint: 5.0°C (41°F) [RH = 93%]
Pressure (altimeter): 30.12 inches Hg (1020.0 mb)
Winds: from the E (80 degrees) at 3 MPH (3 knots; 1.5 m/s)
Visibility: 2.49 miles (4.01 km)
Ceiling: at least 12,000 feet AGL
Clouds: few clouds at 1500 feet AGL
Weather: BR  (mist)

METAR text: VNKT 202020Z 10004KT 4000 BR FEW015 06/05 Q1020 NOSIG
Conditions at: VNKT (KATHMANDU INTL A, NP) observed 2020 UTC 20 January 2019
Temperature: 6.0°C (43°F)
Dewpoint: 5.0°C (41°F) [RH = 93%]
Pressure (altimeter): 30.12 inches Hg (1020.0 mb)
Winds: from the E (100 degrees) at 5 MPH (4 knots; 2.1 m/s)
Visibility: 2.49 miles (4.01 km)
Ceiling: at least 12,000 feet AGL
Clouds: few clouds at 1500 feet AGL
Weather: BR  (mist)

METAR text: VNKT 201950Z 09003KT 4000 BR FEW015 07/05 Q1020 NOSIG
Conditions at: VNKT (KATHMANDU INTL A, NP) observed 1950 UTC 20 January 2019
Temperature: 7.0°C (45°F)
Dewpoint: 5.0°C (41°F) [RH = 87%]
Pressure (altimeter): 30.12 inches Hg (1020.0 mb)
Winds: from the E (90 degrees) at 3 MPH (3 knots; 1.5 m/s)
Visibility: 2.49 miles (4.01 km)
Ceiling: at least 12,000 feet AGL
Clouds: few clouds at 1500 feet AGL
Weather: BR  (mist)

METAR text: VNKT 201920Z 06003KT 4000 BR FEW015 08/06 Q1020 NOSIG
Conditions at: VNKT (KATHMANDU INTL A, NP) observed 1920 UTC 20 January 2019
Temperature: 8.0°C (46°F)
Dewpoint: 6.0°C (43°F) [RH = 87%]
Pressure (altimeter): 30.12 inches Hg (1020.0 mb)
Winds: from the ENE (60 degrees) at 3 MPH (3 knots; 1.5 m/s)
Visibility: 2.49 miles (4.01 km)
Ceiling: at least 12,000 feet AGL
Clouds: few clouds at 1500 feet AGL
Weather: BR  (mist)

METAR text: VNKT 201850Z VRB02KT 4000 BR FEW015 08/06 Q1020 NOSIG
Conditions at: VNKT (KATHMANDU INTL A, NP) observed 1850 UTC 20 January 2019
Temperature: 8.0°C (46°F)
Dewpoint: 6.0°C (43°F) [RH = 87%]
Pressure (altimeter): 30.12 inches Hg (1020.0 mb)
Winds: variable direction winds at 2 MPH (2 knots; 1.0 m/s)
Visibility: 2.49 miles (4.01 km)
Ceiling: at least 12,000 feet AGL
Clouds: few clouds at 1500 feet AGL
Weather: BR  (mist)

METAR text: VNKT 201820Z VRB02KT 4500 BR FEW015 08/06 Q1020 NOSIG
Conditions at: VNKT (KATHMANDU INTL A, NP) observed 1820 UTC 20 January 2019
Temperature: 8.0°C (46°F)
Dewpoint: 6.0°C (43°F) [RH = 87%]
Pressure (altimeter): 30.12 inches Hg (1020.0 mb)
Winds: variable direction winds at 2 MPH (2 knots; 1.0 m/s)
Visibility: 2.80 miles (4.51 km)
Ceiling: at least 12,000 feet AGL
Clouds: few clouds at 1500 feet AGL
Weather: BR  (mist)

METAR text: VNKT 201750Z 10003KT 4500 BR FEW015 08/06 Q1021 NOSIG
Conditions at: VNKT (KATHMANDU INTL A, NP) observed 1750 UTC 20 January 2019
Temperature: 8.0°C (46°F)
Dewpoint: 6.0°C (43°F) [RH = 87%]
Pressure (altimeter): 30.15 inches Hg (1021.0 mb)
Winds: from the E (100 degrees) at 3 MPH (3 knots; 1.5 m/s)
Visibility: 2.80 miles (4.51 km)
Ceiling: at least 12,000 feet AGL
Clouds: few clouds at 1500 feet AGL
Weather: BR  (mist)

METAR text: VNKT 201720Z 09003KT 050V130 4500 BR FEW015 09/06 Q1021 NOSIG
Conditions at: VNKT (KATHMANDU INTL A, NP) observed 1720 UTC 20 January 2019
Temperature: 9.0°C (48°F)
Dewpoint: 6.0°C (43°F) [RH = 81%]
Pressure (altimeter): 30.15 inches Hg (1021.0 mb)
Winds: from the E (90 degrees) at 3 MPH (3 knots; 1.5 m/s)
Visibility: 2.80 miles (4.51 km)
Ceiling: at least 12,000 feet AGL
Clouds: few clouds at 1500 feet AGL
Weather: BR  (mist)

METAR text: VNKT 201650Z 09003KT 4500 BR FEW015 09/06 Q1021 NOSIG
Conditions at: VNKT (KATHMANDU INTL A, NP) observed 1650 UTC 20 January 2019
Temperature: 9.0°C (48°F)
Dewpoint: 6.0°C (43°F) [RH = 81%]
Pressure (altimeter): 30.15 inches Hg (1021.0 mb)
Winds: from the E (90 degrees) at 3 MPH (3 knots; 1.5 m/s)
Visibility: 2.80 miles (4.51 km)
Ceiling: at least 12,000 feet AGL
Clouds: few clouds at 1500 feet AGL
Weather: BR  (mist)

METAR text: VNKT 201620Z VRB02KT 4500 BR FEW015 09/06 Q1021 NOSIG
Conditions at: VNKT (KATHMANDU INTL A, NP) observed 1620 UTC 20 January 2019
Temperature: 9.0°C (48°F)
Dewpoint: 6.0°C (43°F) [RH = 81%]
Pressure (altimeter): 30.15 inches Hg (1021.0 mb)
Winds: variable direction winds at 2 MPH (2 knots; 1.0 m/s)
Visibility: 2.80 miles (4.51 km)
Ceiling: at least 12,000 feet AGL
Clouds: few clouds at 1500 feet AGL
Weather: BR  (mist)

METAR text: VNKT 201550Z 11003KT 4500 BR FEW015 09/06 Q1020 NOSIG
Conditions at: VNKT (KATHMANDU INTL A, NP) observed 1550 UTC 20 January 2019
Temperature: 9.0°C (48°F)
Dewpoint: 6.0°C (43°F) [RH = 81%]
Pressure (altimeter): 30.12 inches Hg (1020.0 mb)
Winds: from the ESE (110 degrees) at 3 MPH (3 knots; 1.5 m/s)
Visibility: 2.80 miles (4.51 km)
Ceiling: at least 12,000 feet AGL
Clouds: few clouds at 1500 feet AGL
Weather: BR  (mist)

METAR text: VNKT 201520Z 10003KT 4500 BR FEW015 09/06 Q1020 NOSIG
Conditions at: VNKT (KATHMANDU INTL A, NP) observed 1520 UTC 20 January 2019
Temperature: 9.0°C (48°F)
Dewpoint: 6.0°C (43°F) [RH = 81%]
Pressure (altimeter): 30.12 inches Hg (1020.0 mb)
Winds: from the E (100 degrees) at 3 MPH (3 knots; 1.5 m/s)
Visibility: 2.80 miles (4.51 km)
Ceiling: at least 12,000 feet AGL
Clouds: few clouds at 1500 feet AGL
Weather: BR  (mist)

METAR text: VNKT 201450Z 10003KT 5000 BR FEW015 11/06 Q1020 NOSIG
Conditions at: VNKT (KATHMANDU INTL A, NP) observed 1450 UTC 20 January 2019
Temperature: 11.0°C (52°F)
Dewpoint: 6.0°C (43°F) [RH = 71%]
Pressure (altimeter): 30.12 inches Hg (1020.0 mb)
Winds: from the E (100 degrees) at 3 MPH (3 knots; 1.5 m/s)
Visibility: 3 miles ( 5 km)
Ceiling: at least 12,000 feet AGL
Clouds: few clouds at 1500 feet AGL
Weather: BR  (mist)

METAR text: VNKT 201420Z 12003KT 090V140 5000 BR FEW015 11/07 Q1020 NOSIG
Conditions at: VNKT (KATHMANDU INTL A, NP) observed 1420 UTC 20 January 2019
Temperature: 11.0°C (52°F)
Dewpoint: 7.0°C (45°F) [RH = 76%]
Pressure (altimeter): 30.12 inches Hg (1020.0 mb)
Winds: from the ESE (120 degrees) at 3 MPH (3 knots; 1.5 m/s)
Visibility: 3 miles ( 5 km)
Ceiling: at least 12,000 feet AGL
Clouds: few clouds at 1500 feet AGL
Weather: BR  (mist)

METAR text: VNKT 201350Z 15004KT 110V180 6000 FEW015 12/06 Q1020 NOSIG
Conditions at: VNKT (KATHMANDU INTL A, NP) observed 1350 UTC 20 January 2019
Temperature: 12.0°C (54°F)
Dewpoint: 6.0°C (43°F) [RH = 67%]
Pressure (altimeter): 30.12 inches Hg (1020.0 mb)
Winds: from the SSE (150 degrees) at 5 MPH (4 knots; 2.1 m/s)
Visibility: 4 miles ( 6 km)
Ceiling: at least 12,000 feet AGL
Clouds: few clouds at 1500 feet AGL
Weather: no significant weather observed at this time

METAR text: VNKT 201320Z 20004KT 170V230 7000 FEW015 13/06 Q1019 NOSIG
Conditions at: VNKT (KATHMANDU INTL A, NP) observed 1320 UTC 20 January 2019
Temperature: 13.0°C (55°F)
Dewpoint: 6.0°C (43°F) [RH = 62%]
Pressure (altimeter): 30.09 inches Hg (1019.0 mb)
Winds: from the SSW (200 degrees) at 5 MPH (4 knots; 2.1 m/s)
Visibility: 4 miles ( 7 km)
Ceiling: at least 12,000 feet AGL
Clouds: few clouds at 1500 feet AGL
Weather: no significant weather observed at this time

METAR text: VNKT 201250Z 23004KT 7000 FEW015 13/06 Q1019 NOSIG
Conditions at: VNKT (KATHMANDU INTL A, NP) observed 1250 UTC 20 January 2019
Temperature: 13.0°C (55°F)
Dewpoint: 6.0°C (43°F) [RH = 62%]
Pressure (altimeter): 30.09 inches Hg (1019.0 mb)
Winds: from the SW (230 degrees) at 5 MPH (4 knots; 2.1 m/s)
Visibility: 4 miles ( 7 km)
Ceiling: at least 12,000 feet AGL
Clouds: few clouds at 1500 feet AGL
Weather: no significant weather observed at this time

METAR text: VNKT 201220Z 24004KT 210V270 7000 FEW015 13/05 Q1018 NOSIG
Conditions at: VNKT (KATHMANDU INTL A, NP) observed 1220 UTC 20 January 2019
Temperature: 13.0°C (55°F)
Dewpoint: 5.0°C (41°F) [RH = 58%]
Pressure (altimeter): 30.06 inches Hg (1018.0 mb)
Winds: from the WSW (240 degrees) at 5 MPH (4 knots; 2.1 m/s)
Visibility: 4 miles ( 7 km)
Ceiling: at least 12,000 feet AGL
Clouds: few clouds at 1500 feet AGL
Weather: no significant weather observed at this time

METAR text: VNKT 201150Z 26006KT 230V290 7000 FEW015 14/05 Q1018 NOSIG
Conditions at: VNKT (KATHMANDU INTL A, NP) observed 1150 UTC 20 January 2019
Temperature: 14.0°C (57°F)
Dewpoint: 5.0°C (41°F) [RH = 55%]
Pressure (altimeter): 30.06 inches Hg (1018.0 mb)
Winds: from the W (260 degrees) at 7 MPH (6 knots; 3.1 m/s)
Visibility: 4 miles ( 7 km)
Ceiling: at least 12,000 feet AGL
Clouds: few clouds at 1500 feet AGL
Weather: no significant weather observed at this time

METAR text: VNKT 201120Z 28006KT 7000 FEW015 SCT030 15/05 Q1018 NOSIG
Conditions at: VNKT (KATHMANDU INTL A, NP) observed 1120 UTC 20 January 2019
Temperature: 15.0°C (59°F)
Dewpoint: 5.0°C (41°F) [RH = 51%]
Pressure (altimeter): 30.06 inches Hg (1018.0 mb)
Winds: from the W (280 degrees) at 7 MPH (6 knots; 3.1 m/s)
Visibility: 4 miles ( 7 km)
Ceiling: at least 12,000 feet AGL
Clouds: few clouds at 1500 feet AGL
scattered clouds at 3000 feet AGL
Weather: no significant weather observed at this time

METAR text: VNKT 201050Z 27007KT 230V300 8000 FEW015 SCT030 16/05 Q1018 NOSIG
Conditions at: VNKT (KATHMANDU INTL A, NP) observed 1050 UTC 20 January 2019
Temperature: 16.0°C (61°F)
Dewpoint: 5.0°C (41°F) [RH = 48%]
Pressure (altimeter): 30.06 inches Hg (1018.0 mb)
Winds: from the W (270 degrees) at 8 MPH (7 knots; 3.6 m/s)
Visibility: 5 miles ( 8 km)
Ceiling: at least 12,000 feet AGL
Clouds: few clouds at 1500 feet AGL
scattered clouds at 3000 feet AGL
Weather: no significant weather observed at this time

METAR text: VNKT 201020Z 28007KT 240V310 7000 FEW020 17/05 Q1018 NOSIG
Conditions at: VNKT (KATHMANDU INTL A, NP) observed 1020 UTC 20 January 2019
Temperature: 17.0°C (63°F)
Dewpoint: 5.0°C (41°F) [RH = 45%]
Pressure (altimeter): 30.06 inches Hg (1018.0 mb)
Winds: from the W (280 degrees) at 8 MPH (7 knots; 3.6 m/s)
Visibility: 4 miles ( 7 km)
Ceiling: at least 12,000 feet AGL
Clouds: few clouds at 2000 feet AGL
Weather: no significant weather observed at this time

METAR text: VNKT 200950Z 25007KT 210V310 7000 FEW020 17/06 Q1018 NOSIG
Conditions at: VNKT (KATHMANDU INTL A, NP) observed 0950 UTC 20 January 2019
Temperature: 17.0°C (63°F)
Dewpoint: 6.0°C (43°F) [RH = 48%]
Pressure (altimeter): 30.06 inches Hg (1018.0 mb)
Winds: from the WSW (250 degrees) at 8 MPH (7 knots; 3.6 m/s)
Visibility: 4 miles ( 7 km)
Ceiling: at least 12,000 feet AGL
Clouds: few clouds at 2000 feet AGL
Weather: no significant weather observed at this time

METAR text: VNKT 200920Z 22008KT 7000 FEW020 18/06 Q1018 NOSIG
Conditions at: VNKT (KATHMANDU INTL A, NP) observed 0920 UTC 20 January 2019
Temperature: 18.0°C (64°F)
Dewpoint: 6.0°C (43°F) [RH = 45%]
Pressure (altimeter): 30.06 inches Hg (1018.0 mb)
Winds: from the SW (220 degrees) at 9 MPH (8 knots; 4.1 m/s)
Visibility: 4 miles ( 7 km)
Ceiling: at least 12,000 feet AGL
Clouds: few clouds at 2000 feet AGL
Weather: no significant weather observed at this time

METAR text: VNKT 200850Z 26004KT 220V330 7000 FEW020 19/05 Q1018 NOSIG
Conditions at: VNKT (KATHMANDU INTL A, NP) observed 0850 UTC 20 January 2019
Temperature: 19.0°C (66°F)
Dewpoint: 5.0°C (41°F) [RH = 40%]
Pressure (altimeter): 30.06 inches Hg (1018.0 mb)
Winds: from the W (260 degrees) at 5 MPH (4 knots; 2.1 m/s)
Visibility: 4 miles ( 7 km)
Ceiling: at least 12,000 feet AGL
Clouds: few clouds at 2000 feet AGL
Weather: no significant weather observed at this time

METAR text: VNKT 200820Z 26003KT 7000 FEW020 18/05 Q1019 NOSIG
Conditions at: VNKT (KATHMANDU INTL A, NP) observed 0820 UTC 20 January 2019
Temperature: 18.0°C (64°F)
Dewpoint: 5.0°C (41°F) [RH = 42%]
Pressure (altimeter): 30.09 inches Hg (1019.0 mb)
Winds: from the W (260 degrees) at 3 MPH (3 knots; 1.5 m/s)
Visibility: 4 miles ( 7 km)
Ceiling: at least 12,000 feet AGL
Clouds: few clouds at 2000 feet AGL
Weather: no significant weather observed at this time

METAR text: VNKT 200750Z 30003KT 7000 FEW015 18/05 Q1019 NOSIG
Conditions at: VNKT (KATHMANDU INTL A, NP) observed 0750 UTC 20 January 2019
Temperature: 18.0°C (64°F)
Dewpoint: 5.0°C (41°F) [RH = 42%]
Pressure (altimeter): 30.09 inches Hg (1019.0 mb)
Winds: from the WNW (300 degrees) at 3 MPH (3 knots; 1.5 m/s)
Visibility: 4 miles ( 7 km)
Ceiling: at least 12,000 feet AGL
Clouds: few clouds at 1500 feet AGL
Weather: no significant weather observed at this time

METAR text: VNKT 200720Z 24003KT 7000 FEW015 18/05 Q1020 NOSIG
Conditions at: VNKT (KATHMANDU INTL A, NP) observed 0720 UTC 20 January 2019
Temperature: 18.0°C (64°F)
Dewpoint: 5.0°C (41°F) [RH = 42%]
Pressure (altimeter): 30.12 inches Hg (1020.0 mb)
Winds: from the WSW (240 degrees) at 3 MPH (3 knots; 1.5 m/s)
Visibility: 4 miles ( 7 km)
Ceiling: at least 12,000 feet AGL
Clouds: few clouds at 1500 feet AGL
Weather: no significant weather observed at this time

METAR text: VNKT 200650Z VRB02KT 6000 FEW015 18/05 Q1020 NOSIG
Conditions at: VNKT (KATHMANDU INTL A, NP) observed 0650 UTC 20 January 2019
Temperature: 18.0°C (64°F)
Dewpoint: 5.0°C (41°F) [RH = 42%]
Pressure (altimeter): 30.12 inches Hg (1020.0 mb)
Winds: variable direction winds at 2 MPH (2 knots; 1.0 m/s)
Visibility: 4 miles ( 6 km)
Ceiling: at least 12,000 feet AGL
Clouds: few clouds at 1500 feet AGL
Weather: no significant weather observed at this time

METAR text: VNKT 200620Z 11004KT 4000 HZ FEW015 17/07 Q1021 BECMG FM0750 5000 HZ
Conditions at: VNKT (KATHMANDU INTL A, NP) observed 0620 UTC 20 January 2019
Temperature: 17.0°C (63°F)
Dewpoint: 7.0°C (45°F) [RH = 52%]
Pressure (altimeter): 30.15 inches Hg (1021.0 mb)
Winds: from the ESE (110 degrees) at 5 MPH (4 knots; 2.1 m/s)
Visibility: 2.49 miles (4.01 km)
Ceiling: at least 12,000 feet AGL
Clouds: few clouds at 1500 feet AGL
Weather: HZ  (haze)

METAR text: VNKT 200550Z 10004KT 3500 HZ FEW015 16/07 Q1022 BECMG FM0650 4000 HZ
Conditions at: VNKT (KATHMANDU INTL A, NP) observed 0550 UTC 20 January 2019
Temperature: 16.0°C (61°F)
Dewpoint: 7.0°C (45°F) [RH = 55%]
Pressure (altimeter): 30.18 inches Hg (1022.0 mb)
Winds: from the E (100 degrees) at 5 MPH (4 knots; 2.1 m/s)
Visibility: 2.17 miles (3.49 km)
Ceiling: at least 12,000 feet AGL
Clouds: few clouds at 1500 feet AGL
Weather: HZ  (haze)

METAR text: VNKT 200520Z 17003KT 3000 HZ FEW015 15/07 Q1022 BECMG FM0550 4000 HZ
Conditions at: VNKT (KATHMANDU INTL A, NP) observed 0520 UTC 20 January 2019
Temperature: 15.0°C (59°F)
Dewpoint: 7.0°C (45°F) [RH = 59%]
Pressure (altimeter): 30.18 inches Hg (1022.0 mb)
Winds: from the S (170 degrees) at 3 MPH (3 knots; 1.5 m/s)
Visibility: 1.86 miles (2.99 km)
Ceiling: at least 12,000 feet AGL
Clouds: few clouds at 1500 feet AGL
Weather: HZ  (haze)

METAR text: VNKT 200450Z 00000KT 3000 HZ FEW015 13/06 Q1023 BECMG FM0550 4000 HZ
Conditions at: VNKT (KATHMANDU INTL A, NP) observed 0450 UTC 20 January 2019
Temperature: 13.0°C (55°F)
Dewpoint: 6.0°C (43°F) [RH = 62%]
Pressure (altimeter): 30.21 inches Hg (1023.0 mb)
Winds: calm
Visibility: 1.86 miles (2.99 km)
Ceiling: at least 12,000 feet AGL
Clouds: few clouds at 1500 feet AGL
Weather: HZ  (haze)

METAR text: VNKT 200420Z 09003KT 2000 HZ FEW015 12/06 Q1023 BECMG FM0450 3000 HZ
Conditions at: VNKT (KATHMANDU INTL A, NP) observed 0420 UTC 20 January 2019
Temperature: 12.0°C (54°F)
Dewpoint: 6.0°C (43°F) [RH = 67%]
Pressure (altimeter): 30.21 inches Hg (1023.0 mb)
Winds: from the E (90 degrees) at 3 MPH (3 knots; 1.5 m/s)
Visibility: 1.24 miles (2.00 km)
Ceiling: at least 12,000 feet AGL
Clouds: few clouds at 1500 feet AGL
Weather: HZ  (haze)

METAR text: VNKT 200350Z 00000KT 1500 BR FEW010 10/06 Q1023 BECMG FM0450 3000 HZ
Conditions at: VNKT (KATHMANDU INTL A, NP) observed 0350 UTC 20 January 2019
Temperature: 10.0°C (50°F)
Dewpoint: 6.0°C (43°F) [RH = 76%]
Pressure (altimeter): 30.21 inches Hg (1023.0 mb)
Winds: calm
Visibility: 0.93 miles (1.50 km)
Ceiling: at least 12,000 feet AGL
Clouds: few clouds at 1000 feet AGL
Weather: BR  (mist)

METAR text: VNKT 200320Z VRB02KT 1500 BR FEW010 09/05 Q1023 BECMG FM0420 3000 HZ
Conditions at: VNKT (KATHMANDU INTL A, NP) observed 0320 UTC 20 January 2019
Temperature: 9.0°C (48°F)
Dewpoint: 5.0°C (41°F) [RH = 76%]
Pressure (altimeter): 30.21 inches Hg (1023.0 mb)
Winds: variable direction winds at 2 MPH (2 knots; 1.0 m/s)
Visibility: 0.93 miles (1.50 km)
Ceiling: at least 12,000 feet AGL
Clouds: few clouds at 1000 feet AGL
Weather: BR  (mist)

METAR text: VNKT 200250Z VRB02KT 1500 BR FEW010 07/05 Q1022 NOSIG
Conditions at: VNKT (KATHMANDU INTL A, NP) observed 0250 UTC 20 January 2019
Temperature: 7.0°C (45°F)
Dewpoint: 5.0°C (41°F) [RH = 87%]
Pressure (altimeter): 30.18 inches Hg (1022.0 mb)
Winds: variable direction winds at 2 MPH (2 knots; 1.0 m/s)
Visibility: 0.93 miles (1.50 km)
Ceiling: at least 12,000 feet AGL
Clouds: few clouds at 1000 feet AGL
Weather: BR  (mist)

METAR text: VNKT 200220Z VRB02KT 1500 BR FEW010 05/04 Q1022 NOSIG
Conditions at: VNKT (KATHMANDU INTL A, NP) observed 0220 UTC 20 January 2019
Temperature: 5.0°C (41°F)
Dewpoint: 4.0°C (39°F) [RH = 93%]
Pressure (altimeter): 30.18 inches Hg (1022.0 mb)
Winds: variable direction winds at 2 MPH (2 knots; 1.0 m/s)
Visibility: 0.93 miles (1.50 km)
Ceiling: at least 12,000 feet AGL
Clouds: few clouds at 1000 feet AGL
Weather: BR  (mist)

METAR text: VNKT 200150Z VRB02KT 1500 BR FEW010 04/03 Q1021 NOSIG
Conditions at: VNKT (KATHMANDU INTL A, NP) observed 0150 UTC 20 January 2019
Temperature: 4.0°C (39°F)
Dewpoint: 3.0°C (37°F) [RH = 93%]
Pressure (altimeter): 30.15 inches Hg (1021.0 mb)
Winds: variable direction winds at 2 MPH (2 knots; 1.0 m/s)
Visibility: 0.93 miles (1.50 km)
Ceiling: at least 12,000 feet AGL
Clouds: few clouds at 1000 feet AGL
Weather: BR  (mist)

METAR text: VNKT 200120Z 00000KT 1000 BR FEW010 04/04 Q1020 NOSIG
Conditions at: VNKT (KATHMANDU INTL A, NP) observed 0120 UTC 20 January 2019
Temperature: 4.0°C (39°F)
Dewpoint: 4.0°C (39°F) [RH = 100%]
Pressure (altimeter): 30.12 inches Hg (1020.0 mb)
Winds: calm
Visibility: 0.62 miles (1.00 km)
Ceiling: at least 12,000 feet AGL
Clouds: few clouds at 1000 feet AGL
Weather: BR  (mist)

METAR text: VNKT 200050Z 15003KT 2000 BR FEW010 04/04 Q1020 NOSIG
Conditions at: VNKT (KATHMANDU INTL A, NP) observed 0050 UTC 20 January 2019
Temperature: 4.0°C (39°F)
Dewpoint: 4.0°C (39°F) [RH = 100%]
Pressure (altimeter): 30.12 inches Hg (1020.0 mb)
Winds: from the SSE (150 degrees) at 3 MPH (3 knots; 1.5 m/s)
Visibility: 1.24 miles (2.00 km)
Ceiling: at least 12,000 feet AGL
Clouds: few clouds at 1000 feet AGL
Weather: BR  (mist)

METAR text: VNKT 200020Z 11003KT 2500 BR FEW010 04/03 Q1020 NOSIG
Conditions at: VNKT (KATHMANDU INTL A, NP) observed 0020 UTC 20 January 2019
Temperature: 4.0°C (39°F)
Dewpoint: 3.0°C (37°F) [RH = 93%]
Pressure (altimeter): 30.12 inches Hg (1020.0 mb)
Winds: from the ESE (110 degrees) at 3 MPH (3 knots; 1.5 m/s)
Visibility: 1.55 miles (2.49 km)
Ceiling: at least 12,000 feet AGL
Clouds: few clouds at 1000 feet AGL
Weather: BR  (mist)

METAR text: VNKT 192350Z VRB02KT 2500 BR FEW010 04/03 Q1019 NOSIG
Conditions at: VNKT (KATHMANDU INTL A, NP) observed 2350 UTC 19 January 2019
Temperature: 4.0°C (39°F)
Dewpoint: 3.0°C (37°F) [RH = 93%]
Pressure (altimeter): 30.09 inches Hg (1019.0 mb)
Winds: variable direction winds at 2 MPH (2 knots; 1.0 m/s)
Visibility: 1.55 miles (2.49 km)
Ceiling: at least 12,000 feet AGL
Clouds: few clouds at 1000 feet AGL
Weather: BR  (mist)

METAR text: VNKT 192250Z 09003KT 3000 BR FEW015 05/04 Q1019 NOSIG
Conditions at: VNKT (KATHMANDU INTL A, NP) observed 2250 UTC 19 January 2019
Temperature: 5.0°C (41°F)
Dewpoint: 4.0°C (39°F) [RH = 93%]
Pressure (altimeter): 30.09 inches Hg (1019.0 mb)
Winds: from the E (90 degrees) at 3 MPH (3 knots; 1.5 m/s)
Visibility: 1.86 miles (2.99 km)
Ceiling: at least 12,000 feet AGL
Clouds: few clouds at 1500 feet AGL
Weather: BR  (mist)

METAR text: VNKT 192150Z VRB02KT 3000 BR FEW015 06/04 Q1019 NOSIG
Conditions at: VNKT (KATHMANDU INTL A, NP) observed 2150 UTC 19 January 2019
Temperature: 6.0°C (43°F)
Dewpoint: 4.0°C (39°F) [RH = 87%]
Pressure (altimeter): 30.09 inches Hg (1019.0 mb)
Winds: variable direction winds at 2 MPH (2 knots; 1.0 m/s)
Visibility: 1.86 miles (2.99 km)
Ceiling: at least 12,000 feet AGL
Clouds: few clouds at 1500 feet AGL
Weather: BR  (mist)

METAR text: VNKT 192120Z VRB02KT 3000 BR FEW015 06/04 Q1019 NOSIG
Conditions at: VNKT (KATHMANDU INTL A, NP) observed 2120 UTC 19 January 2019
Temperature: 6.0°C (43°F)
Dewpoint: 4.0°C (39°F) [RH = 87%]
Pressure (altimeter): 30.09 inches Hg (1019.0 mb)
Winds: variable direction winds at 2 MPH (2 knots; 1.0 m/s)
Visibility: 1.86 miles (2.99 km)
Ceiling: at least 12,000 feet AGL
Clouds: few clouds at 1500 feet AGL
Weather: BR  (mist)

METAR text: VNKT 192050Z 11003KT 3000 BR FEW015 06/04 Q1020 NOSIG
Conditions at: VNKT (KATHMANDU INTL A, NP) observed 2050 UTC 19 January 2019
Temperature: 6.0°C (43°F)
Dewpoint: 4.0°C (39°F) [RH = 87%]
Pressure (altimeter): 30.12 inches Hg (1020.0 mb)
Winds: from the ESE (110 degrees) at 3 MPH (3 knots; 1.5 m/s)
Visibility: 1.86 miles (2.99 km)
Ceiling: at least 12,000 feet AGL
Clouds: few clouds at 1500 feet AGL
Weather: BR  (mist)

METAR text: VNKT 192020Z 09004KT 3000 BR FEW015 06/04 Q1020 NOSIG
Conditions at: VNKT (KATHMANDU INTL A, NP) observed 2020 UTC 19 January 2019
Temperature: 6.0°C (43°F)
Dewpoint: 4.0°C (39°F) [RH = 87%]
Pressure (altimeter): 30.12 inches Hg (1020.0 mb)
Winds: from the E (90 degrees) at 5 MPH (4 knots; 2.1 m/s)
Visibility: 1.86 miles (2.99 km)
Ceiling: at least 12,000 feet AGL
Clouds: few clouds at 1500 feet AGL
Weather: BR  (mist)

METAR text: VNKT 191950Z VRB02KT 3500 BR FEW015 06/04 Q1020 NOSIG
Conditions at: VNKT (KATHMANDU INTL A, NP) observed 1950 UTC 19 January 2019
Temperature: 6.0°C (43°F)
Dewpoint: 4.0°C (39°F) [RH = 87%]
Pressure (altimeter): 30.12 inches Hg (1020.0 mb)
Winds: variable direction winds at 2 MPH (2 knots; 1.0 m/s)
Visibility: 2.17 miles (3.49 km)
Ceiling: at least 12,000 feet AGL
Clouds: few clouds at 1500 feet AGL
Weather: BR  (mist)

METAR text: VNKT 191920Z 00000KT 4000 BR FEW015 07/05 Q1021 NOSIG
Conditions at: VNKT (KATHMANDU INTL A, NP) observed 1920 UTC 19 January 2019
Temperature: 7.0°C (45°F)
Dewpoint: 5.0°C (41°F) [RH = 87%]
Pressure (altimeter): 30.15 inches Hg (1021.0 mb)
Winds: calm
Visibility: 2.49 miles (4.01 km)
Ceiling: at least 12,000 feet AGL
Clouds: few clouds at 1500 feet AGL
Weather: BR  (mist)

METAR text: VNKT 191850Z VRB02KT 4000 BR FEW015 07/05 Q1021 NOSIG
Conditions at: VNKT (KATHMANDU INTL A, NP) observed 1850 UTC 19 January 2019
Temperature: 7.0°C (45°F)
Dewpoint: 5.0°C (41°F) [RH = 87%]
Pressure (altimeter): 30.15 inches Hg (1021.0 mb)
Winds: variable direction winds at 2 MPH (2 knots; 1.0 m/s)
Visibility: 2.49 miles (4.01 km)
Ceiling: at least 12,000 feet AGL
Clouds: few clouds at 1500 feet AGL
Weather: BR  (mist)

METAR text: VNKT 191820Z 10004KT 5000 BR FEW015 07/05 Q1021 NOSIG
Conditions at: VNKT (KATHMANDU INTL A, NP) observed 1820 UTC 19 January 2019
Temperature: 7.0°C (45°F)
Dewpoint: 5.0°C (41°F) [RH = 87%]
Pressure (altimeter): 30.15 inches Hg (1021.0 mb)
Winds: from the E (100 degrees) at 5 MPH (4 knots; 2.1 m/s)
Visibility: 3 miles ( 5 km)
Ceiling: at least 12,000 feet AGL
Clouds: few clouds at 1500 feet AGL
Weather: BR  (mist)

Forecast for: VNKT (KATHMANDU INTL A, NP)
Text: TAF VNKT 210500Z 2106/2206 15003KT 4000 HZ FEW015 SCT030
Forecast period: 0600 to 0700 UTC 21 January 2019
Forecast type: FROM: standard forecast or significant change
Winds: from the SSE (150 degrees) at 3 MPH (3 knots; 1.5 m/s)
Visibility: 2.49 miles (4.01 km)
Ceiling: at least 12,000 feet AGL
Clouds: few clouds at 1500 feet AGL
scattered clouds at 3000 feet AGL
Weather: HZ  (haze)
Text: BECMG 2107/2108 24007KT 7000 FEW020 SCT100
Forecast period: 0700 to 1400 UTC 21 January 2019
Forecast type: BECOMING: Conditions expected to become as follows by 0800 UTC 21 January 2019
Winds: from the WSW (240 degrees) at 8 MPH (7 knots; 3.6 m/s)
Visibility: 4 miles (7 km)
Ceiling: at least 12,000 feet AGL
Clouds: few clouds at 2000 feet AGL
scattered clouds at 10000 feet AGL
Weather: HZ  (haze)
Text: BECMG 2114/2115 14003KT 4000 HZ/BR FEW015 SCT100
Forecast period: 1400 UTC 21 January 2019 to 0000 UTC 22 January 2019
Forecast type: BECOMING: Conditions expected to become as follows by 1500 UTC 21 January 2019
Winds: from the SE (140 degrees) at 3 MPH (3 knots; 1.5 m/s)
Visibility: 2.49 miles (4.01 km)
Ceiling: at least 12,000 feet AGL
Clouds: few clouds at 1500 feet AGL
scattered clouds at 10000 feet AGL
Weather: HZ BR  (haze, mist)
Text: BECMG 2200/2202 VRB02KT 2500 BR FEW010 SCT030 BKN250
Forecast period: 0000 to 0400 UTC 22 January 2019
Forecast type: BECOMING: Conditions expected to become as follows by 0200 UTC 22 January 2019
Winds: variable direction winds at 2 MPH (2 knots; 1.0 m/s)
Visibility: 1.55 miles (2.49 km)
Ceiling: 25000 feet AGL
Clouds: few clouds at 1000 feet AGL
scattered clouds at 3000 feet AGL
broken clouds at 25000 feet AGL
Weather: BR  (mist)
Text: PROB40 2201/2203 1500 BR
Forecast period: 0100 to 0300 UTC 22 January 2019
Forecast type: PROBABLE: 40 percent likelihood of the following during this time
Visibility: 0.93 miles (1.50 km)
Ceiling: unknown
Clouds: missing
Weather: BR  (mist)
Text: BECMG 2204/2205 13003KT 3000 BR FEW015 SCT030 BKN250
Forecast period: 0400 to 0600 UTC 22 January 2019
Forecast type: BECOMING: Conditions expected to become as follows by 0500 UTC 22 January 2019
Winds: from the SE (130 degrees) at 3 MPH (3 knots; 1.5 m/s)
Visibility: 1.86 miles (2.99 km)
Ceiling: 25000 feet AGL
Clouds: few clouds at 1500 feet AGL
scattered clouds at 3000 feet AGL
broken clouds at 25000 feet AGL
Weather: BR  (mist)